sensor_id;sensor_type;location;lat;lon;timestamp;P1;durP1;ratioP1;P2;durP2;ratioP2
16522;SDS011;19889;52.546;13.348;2024-02-14T00:01:20;6.33;;;3.40;;
16522;SDS011;19889;52.546;13.348;2024-02-14T00:03:47;4.30;;;3.20;;
16522;SDS011;19889;52.546;13.348;2024-02-14T00:06:14;3.53;;;3.17;;
16522;SDS011;19889;52.546;13.348;2024-02-14T00:08:42;4.03;;;3.47;;
16522;SDS011;19889;52.546;13.348;2024-02-14T00:11:09;4.10;;;3.63;;
16522;SDS011;19889;52.546;13.348;2024-02-14T00:13:38;5.20;;;3.30;;
16522;SDS011;19889;52.546;13.348;2024-02-14T00:16:05;6.27;;;3.70;;
16522;SDS011;19889;52.546;13.348;2024-02-14T00:18:33;5.20;;;3.87;;
16522;SDS011;19889;52.546;13.348;2024-02-14T00:21:00;3.87;;;3.40;;
16522;SDS011;19889;52.546;13.348;2024-02-14T00:23:28;6.23;;;3.77;;
16522;SDS011;19889;52.546;13.348;2024-02-14T00:25:56;3.47;;;3.17;;
16522;SDS011;19889;52.546;13.348;2024-02-14T00:28:23;4.00;;;2.93;;
16522;SDS011;19889;52.546;13.348;2024-02-14T00:30:53;4.00;;;3.60;;
16522;SDS011;19889;52.546;13.348;2024-02-14T00:33:20;5.40;;;3.37;;
16522;SDS011;19889;52.546;13.348;2024-02-14T00:35:48;4.23;;;3.33;;
16522;SDS011;19889;52.546;13.348;2024-02-14T00:38:15;4.20;;;3.37;;
16522;SDS011;19889;52.546;13.348;2024-02-14T00:40:43;4.17;;;3.40;;
16522;SDS011;19889;52.546;13.348;2024-02-14T00:43:10;5.27;;;3.43;;
16522;SDS011;19889;52.546;13.348;2024-02-14T00:45:37;3.77;;;3.33;;
16522;SDS011;19889;52.546;13.348;2024-02-14T00:48:07;6.13;;;3.97;;
16522;SDS011;19889;52.546;13.348;2024-02-14T00:50:34;3.47;;;3.17;;
16522;SDS011;19889;52.546;13.348;2024-02-14T00:53:03;4.37;;;3.10;;
16522;SDS011;19889;52.546;13.348;2024-02-14T00:55:30;4.80;;;3.43;;
16522;SDS011;19889;52.546;13.348;2024-02-14T00:57:57;3.63;;;3.33;;
16522;SDS011;19889;52.546;13.348;2024-02-14T01:00:25;4.10;;;3.37;;
16522;SDS011;19889;52.546;13.348;2024-02-14T01:02:52;4.20;;;3.80;;
16522;SDS011;19889;52.546;13.348;2024-02-14T01:05:22;5.33;;;3.87;;
16522;SDS011;19889;52.546;13.348;2024-02-14T01:07:50;4.97;;;3.20;;
16522;SDS011;19889;52.546;13.348;2024-02-14T01:10:19;4.33;;;3.33;;
16522;SDS011;19889;52.546;13.348;2024-02-14T01:12:46;5.87;;;3.90;;
16522;SDS011;19889;52.546;13.348;2024-02-14T01:15:14;4.73;;;3.60;;
16522;SDS011;19889;52.546;13.348;2024-02-14T01:17:41;5.07;;;4.07;;
16522;SDS011;19889;52.546;13.348;2024-02-14T01:20:10;5.43;;;3.73;;
16522;SDS011;19889;52.546;13.348;2024-02-14T01:22:39;5.70;;;3.57;;
16522;SDS011;19889;52.546;13.348;2024-02-14T01:25:07;5.70;;;3.80;;
16522;SDS011;19889;52.546;13.348;2024-02-14T01:27:35;3.93;;;3.50;;
16522;SDS011;19889;52.546;13.348;2024-02-14T01:30:02;6.20;;;3.93;;
16522;SDS011;19889;52.546;13.348;2024-02-14T01:32:31;6.13;;;3.57;;
16522;SDS011;19889;52.546;13.348;2024-02-14T01:34:58;6.43;;;4.20;;
16522;SDS011;19889;52.546;13.348;2024-02-14T01:37:26;4.93;;;3.77;;
16522;SDS011;19889;52.546;13.348;2024-02-14T01:39:56;5.37;;;4.17;;
16522;SDS011;19889;52.546;13.348;2024-02-14T01:42:23;5.47;;;4.33;;
16522;SDS011;19889;52.546;13.348;2024-02-14T01:44:50;5.83;;;4.37;;
16522;SDS011;19889;52.546;13.348;2024-02-14T01:47:18;4.50;;;3.43;;
16522;SDS011;19889;52.546;13.348;2024-02-14T01:49:46;5.70;;;4.27;;
16522;SDS011;19889;52.546;13.348;2024-02-14T01:52:13;6.00;;;4.47;;
16522;SDS011;19889;52.546;13.348;2024-02-14T01:54:41;4.73;;;3.70;;
16522;SDS011;19889;52.546;13.348;2024-02-14T01:57:11;4.37;;;3.97;;
16522;SDS011;19889;52.546;13.348;2024-02-14T01:59:38;4.60;;;3.70;;
16522;SDS011;19889;52.546;13.348;2024-02-14T02:02:06;5.53;;;3.60;;
16522;SDS011;19889;52.546;13.348;2024-02-14T02:04:35;4.10;;;3.70;;
16522;SDS011;19889;52.546;13.348;2024-02-14T02:07:02;4.00;;;3.60;;
16522;SDS011;19889;52.546;13.348;2024-02-14T02:09:30;5.50;;;3.87;;
16522;SDS011;19889;52.546;13.348;2024-02-14T02:11:59;4.13;;;3.70;;
16522;SDS011;19889;52.546;13.348;2024-02-14T02:14:28;4.23;;;3.27;;
16522;SDS011;19889;52.546;13.348;2024-02-14T02:16:55;4.90;;;4.03;;
16522;SDS011;19889;52.546;13.348;2024-02-14T02:19:23;5.43;;;3.57;;
16522;SDS011;19889;52.546;13.348;2024-02-14T02:21:50;4.67;;;3.90;;
16522;SDS011;19889;52.546;13.348;2024-02-14T02:24:19;5.30;;;4.03;;
16522;SDS011;19889;52.546;13.348;2024-02-14T02:26:46;5.37;;;3.80;;
16522;SDS011;19889;52.546;13.348;2024-02-14T02:29:13;5.07;;;4.07;;
16522;SDS011;19889;52.546;13.348;2024-02-14T02:31:41;3.93;;;3.50;;
16522;SDS011;19889;52.546;13.348;2024-02-14T02:34:11;6.10;;;3.90;;
16522;SDS011;19889;52.546;13.348;2024-02-14T02:36:38;5.87;;;3.57;;
16522;SDS011;19889;52.546;13.348;2024-02-14T02:39:06;4.23;;;3.57;;
16522;SDS011;19889;52.546;13.348;2024-02-14T02:41:34;4.47;;;3.87;;
16522;SDS011;19889;52.546;13.348;2024-02-14T02:44:02;4.97;;;3.63;;
16522;SDS011;19889;52.546;13.348;2024-02-14T02:46:31;5.20;;;3.63;;
16522;SDS011;19889;52.546;13.348;2024-02-14T02:48:59;6.17;;;4.27;;
16522;SDS011;19889;52.546;13.348;2024-02-14T02:51:27;4.47;;;4.07;;
16522;SDS011;19889;52.546;13.348;2024-02-14T02:53:55;6.67;;;4.30;;
16522;SDS011;19889;52.546;13.348;2024-02-14T02:56:22;5.90;;;4.13;;
16522;SDS011;19889;52.546;13.348;2024-02-14T02:58:54;5.53;;;3.77;;
16522;SDS011;19889;52.546;13.348;2024-02-14T03:01:21;5.23;;;3.87;;
16522;SDS011;19889;52.546;13.348;2024-02-14T03:03:50;4.57;;;3.53;;
16522;SDS011;19889;52.546;13.348;2024-02-14T03:06:17;4.57;;;4.07;;
16522;SDS011;19889;52.546;13.348;2024-02-14T03:08:45;5.63;;;4.00;;
16522;SDS011;19889;52.546;13.348;2024-02-14T03:11:15;4.73;;;3.97;;
16522;SDS011;19889;52.546;13.348;2024-02-14T03:13:42;4.97;;;4.27;;
16522;SDS011;19889;52.546;13.348;2024-02-14T03:16:11;4.27;;;3.60;;
16522;SDS011;19889;52.546;13.348;2024-02-14T03:18:40;5.40;;;4.00;;
16522;SDS011;19889;52.546;13.348;2024-02-14T03:21:07;6.80;;;3.47;;
16522;SDS011;19889;52.546;13.348;2024-02-14T03:23:34;6.50;;;3.80;;
16522;SDS011;19889;52.546;13.348;2024-02-14T03:26:01;5.33;;;3.57;;
16522;SDS011;19889;52.546;13.348;2024-02-14T03:28:32;3.70;;;3.40;;
16522;SDS011;19889;52.546;13.348;2024-02-14T03:31:00;5.33;;;3.90;;
16522;SDS011;19889;52.546;13.348;2024-02-14T03:33:28;4.67;;;3.60;;
16522;SDS011;19889;52.546;13.348;2024-02-14T03:35:56;3.50;;;3.20;;
16522;SDS011;19889;52.546;13.348;2024-02-14T03:38:26;3.80;;;3.50;;
16522;SDS011;19889;52.546;13.348;2024-02-14T03:40:54;4.30;;;3.50;;
16522;SDS011;19889;52.546;13.348;2024-02-14T03:43:21;5.47;;;3.63;;
16522;SDS011;19889;52.546;13.348;2024-02-14T03:45:49;4.07;;;3.67;;
16522;SDS011;19889;52.546;13.348;2024-02-14T03:48:17;6.67;;;3.90;;
16522;SDS011;19889;52.546;13.348;2024-02-14T03:50:45;4.00;;;3.60;;
16522;SDS011;19889;52.546;13.348;2024-02-14T03:53:13;4.90;;;3.50;;
16522;SDS011;19889;52.546;13.348;2024-02-14T03:55:41;3.90;;;3.50;;
16522;SDS011;19889;52.546;13.348;2024-02-14T03:58:08;4.20;;;3.80;;
16522;SDS011;19889;52.546;13.348;2024-02-14T04:00:36;4.50;;;3.63;;
16522;SDS011;19889;52.546;13.348;2024-02-14T04:03:03;6.17;;;4.20;;
16522;SDS011;19889;52.546;13.348;2024-02-14T04:05:32;4.33;;;3.90;;
16522;SDS011;19889;52.546;13.348;2024-02-14T04:08:01;4.60;;;3.93;;
16522;SDS011;19889;52.546;13.348;2024-02-14T04:10:28;5.53;;;4.00;;
16522;SDS011;19889;52.546;13.348;2024-02-14T04:12:55;4.77;;;4.07;;
16522;SDS011;19889;52.546;13.348;2024-02-14T04:15:23;4.40;;;3.40;;
16522;SDS011;19889;52.546;13.348;2024-02-14T04:17:50;4.63;;;3.87;;
16522;SDS011;19889;52.546;13.348;2024-02-14T04:20:18;4.80;;;3.70;;
16522;SDS011;19889;52.546;13.348;2024-02-14T04:22:45;4.60;;;3.80;;
16522;SDS011;19889;52.546;13.348;2024-02-14T04:25:14;9.03;;;4.50;;
16522;SDS011;19889;52.546;13.348;2024-02-14T04:27:41;4.83;;;3.70;;
16522;SDS011;19889;52.546;13.348;2024-02-14T04:30:09;3.60;;;3.30;;
16522;SDS011;19889;52.546;13.348;2024-02-14T04:32:37;4.40;;;3.93;;
16522;SDS011;19889;52.546;13.348;2024-02-14T04:35:04;4.07;;;3.70;;
16522;SDS011;19889;52.546;13.348;2024-02-14T04:37:33;4.83;;;4.10;;
16522;SDS011;19889;52.546;13.348;2024-02-14T04:40:01;4.53;;;4.13;;
16522;SDS011;19889;52.546;13.348;2024-02-14T04:42:30;5.47;;;4.40;;
16522;SDS011;19889;52.546;13.348;2024-02-14T04:44:58;3.50;;;3.20;;
16522;SDS011;19889;52.546;13.348;2024-02-14T04:47:25;5.30;;;4.30;;
16522;SDS011;19889;52.546;13.348;2024-02-14T04:49:55;5.00;;;3.83;;
16522;SDS011;19889;52.546;13.348;2024-02-14T04:52:22;4.80;;;4.23;;
16522;SDS011;19889;52.546;13.348;2024-02-14T04:54:50;7.80;;;4.30;;
16522;SDS011;19889;52.546;13.348;2024-02-14T04:57:17;4.27;;;3.87;;
16522;SDS011;19889;52.546;13.348;2024-02-14T04:59:46;7.30;;;4.90;;
16522;SDS011;19889;52.546;13.348;2024-02-14T05:02:14;4.67;;;4.13;;
16522;SDS011;19889;52.546;13.348;2024-02-14T05:04:41;5.00;;;4.30;;
16522;SDS011;19889;52.546;13.348;2024-02-14T05:07:08;7.97;;;5.40;;
16522;SDS011;19889;52.546;13.348;2024-02-14T05:09:36;6.97;;;4.80;;
16522;SDS011;19889;52.546;13.348;2024-02-14T05:12:03;5.70;;;5.10;;
16522;SDS011;19889;52.546;13.348;2024-02-14T05:14:32;4.73;;;4.03;;
16522;SDS011;19889;52.546;13.348;2024-02-14T05:17:00;4.40;;;3.77;;
16522;SDS011;19889;52.546;13.348;2024-02-14T05:19:28;4.90;;;4.40;;
16522;SDS011;19889;52.546;13.348;2024-02-14T05:21:55;4.30;;;3.90;;
16522;SDS011;19889;52.546;13.348;2024-02-14T05:24:22;7.53;;;5.37;;
16522;SDS011;19889;52.546;13.348;2024-02-14T05:26:52;7.17;;;5.03;;
16522;SDS011;19889;52.546;13.348;2024-02-14T05:29:19;7.40;;;4.40;;
16522;SDS011;19889;52.546;13.348;2024-02-14T05:31:47;5.60;;;4.20;;
16522;SDS011;19889;52.546;13.348;2024-02-14T05:34:16;6.03;;;5.07;;
16522;SDS011;19889;52.546;13.348;2024-02-14T05:36:44;4.70;;;4.03;;
16522;SDS011;19889;52.546;13.348;2024-02-14T05:39:12;5.10;;;4.20;;
16522;SDS011;19889;52.546;13.348;2024-02-14T05:41:41;5.70;;;4.10;;
16522;SDS011;19889;52.546;13.348;2024-02-14T05:44:08;5.20;;;4.40;;
16522;SDS011;19889;52.546;13.348;2024-02-14T05:46:35;6.43;;;4.40;;
16522;SDS011;19889;52.546;13.348;2024-02-14T05:49:03;5.77;;;4.83;;
16522;SDS011;19889;52.546;13.348;2024-02-14T05:51:31;5.73;;;4.97;;
16522;SDS011;19889;52.546;13.348;2024-02-14T05:53:59;20.33;;;10.43;;
16522;SDS011;19889;52.546;13.348;2024-02-14T05:56:26;12.17;;;7.40;;
16522;SDS011;19889;52.546;13.348;2024-02-14T05:58:53;9.10;;;6.17;;
16522;SDS011;19889;52.546;13.348;2024-02-14T06:01:20;8.43;;;6.07;;
16522;SDS011;19889;52.546;13.348;2024-02-14T06:03:48;12.87;;;8.87;;
16522;SDS011;19889;52.546;13.348;2024-02-14T06:06:15;8.43;;;6.60;;
16522;SDS011;19889;52.546;13.348;2024-02-14T06:08:44;8.73;;;6.23;;
16522;SDS011;19889;52.546;13.348;2024-02-14T06:11:11;6.57;;;5.07;;
16522;SDS011;19889;52.546;13.348;2024-02-14T06:13:39;6.60;;;5.00;;
16522;SDS011;19889;52.546;13.348;2024-02-14T06:16:07;5.73;;;4.87;;
16522;SDS011;19889;52.546;13.348;2024-02-14T06:18:36;11.00;;;6.73;;
16522;SDS011;19889;52.546;13.348;2024-02-14T06:21:05;8.73;;;5.53;;
16522;SDS011;19889;52.546;13.348;2024-02-14T06:23:32;6.90;;;5.43;;
16522;SDS011;19889;52.546;13.348;2024-02-14T06:26:00;4.90;;;4.40;;
16522;SDS011;19889;52.546;13.348;2024-02-14T06:28:29;6.07;;;4.90;;
16522;SDS011;19889;52.546;13.348;2024-02-14T06:30:56;5.10;;;4.60;;
16522;SDS011;19889;52.546;13.348;2024-02-14T06:33:24;5.97;;;4.30;;
16522;SDS011;19889;52.546;13.348;2024-02-14T06:35:51;7.60;;;4.80;;
16522;SDS011;19889;52.546;13.348;2024-02-14T06:38:18;8.30;;;4.77;;
16522;SDS011;19889;52.546;13.348;2024-02-14T06:40:46;4.93;;;4.17;;
16522;SDS011;19889;52.546;13.348;2024-02-14T06:43:14;4.70;;;4.20;;
16522;SDS011;19889;52.546;13.348;2024-02-14T06:45:42;8.83;;;4.70;;
16522;SDS011;19889;52.546;13.348;2024-02-14T06:48:10;5.47;;;4.60;;
16522;SDS011;19889;52.546;13.348;2024-02-14T06:50:37;5.80;;;4.73;;
16522;SDS011;19889;52.546;13.348;2024-02-14T06:53:04;7.00;;;5.43;;
16522;SDS011;19889;52.546;13.348;2024-02-14T06:55:32;5.83;;;5.20;;
16522;SDS011;19889;52.546;13.348;2024-02-14T06:57:59;6.90;;;5.03;;
16522;SDS011;19889;52.546;13.348;2024-02-14T07:00:31;6.03;;;5.20;;
16522;SDS011;19889;52.546;13.348;2024-02-14T07:02:59;6.30;;;4.20;;
16522;SDS011;19889;52.546;13.348;2024-02-14T07:05:26;4.93;;;4.43;;
16522;SDS011;19889;52.546;13.348;2024-02-14T07:07:54;4.90;;;4.37;;
16522;SDS011;19889;52.546;13.348;2024-02-14T07:10:21;8.90;;;4.83;;
16522;SDS011;19889;52.546;13.348;2024-02-14T07:12:49;5.80;;;4.67;;
16522;SDS011;19889;52.546;13.348;2024-02-14T07:15:16;6.33;;;4.60;;
16522;SDS011;19889;52.546;13.348;2024-02-14T07:17:46;4.90;;;4.00;;
16522;SDS011;19889;52.546;13.348;2024-02-14T07:20:13;4.47;;;4.07;;
16522;SDS011;19889;52.546;13.348;2024-02-14T07:22:42;4.53;;;4.13;;
16522;SDS011;19889;52.546;13.348;2024-02-14T07:25:11;6.17;;;4.13;;
16522;SDS011;19889;52.546;13.348;2024-02-14T07:27:40;4.67;;;4.27;;
16522;SDS011;19889;52.546;13.348;2024-02-14T07:30:08;6.07;;;4.07;;
16522;SDS011;19889;52.546;13.348;2024-02-14T07:32:36;5.40;;;4.63;;
16522;SDS011;19889;52.546;13.348;2024-02-14T07:35:06;3.83;;;3.27;;
16522;SDS011;19889;52.546;13.348;2024-02-14T07:37:34;4.90;;;3.60;;
16522;SDS011;19889;52.546;13.348;2024-02-14T07:40:01;3.93;;;3.50;;
16522;SDS011;19889;52.546;13.348;2024-02-14T07:42:29;5.60;;;4.30;;
16522;SDS011;19889;52.546;13.348;2024-02-14T07:44:56;4.67;;;4.00;;
16522;SDS011;19889;52.546;13.348;2024-02-14T07:47:24;4.87;;;3.93;;
16522;SDS011;19889;52.546;13.348;2024-02-14T07:49:51;5.60;;;3.77;;
16522;SDS011;19889;52.546;13.348;2024-02-14T07:52:20;5.80;;;3.70;;
16522;SDS011;19889;52.546;13.348;2024-02-14T07:54:51;4.20;;;3.33;;
16522;SDS011;19889;52.546;13.348;2024-02-14T07:57:19;6.00;;;3.70;;
16522;SDS011;19889;52.546;13.348;2024-02-14T07:59:46;5.70;;;3.70;;
16522;SDS011;19889;52.546;13.348;2024-02-14T08:02:14;4.27;;;3.43;;
16522;SDS011;19889;52.546;13.348;2024-02-14T08:04:41;8.13;;;4.23;;
16522;SDS011;19889;52.546;13.348;2024-02-14T08:07:09;3.70;;;3.27;;
16522;SDS011;19889;52.546;13.348;2024-02-14T08:09:38;4.60;;;4.13;;
16522;SDS011;19889;52.546;13.348;2024-02-14T08:12:06;6.67;;;5.20;;
16522;SDS011;19889;52.546;13.348;2024-02-14T08:14:33;5.37;;;4.23;;
16522;SDS011;19889;52.546;13.348;2024-02-14T08:17:01;5.47;;;3.83;;
16522;SDS011;19889;52.546;13.348;2024-02-14T08:19:29;4.20;;;3.63;;
16522;SDS011;19889;52.546;13.348;2024-02-14T08:21:57;4.87;;;3.87;;
16522;SDS011;19889;52.546;13.348;2024-02-14T08:24:26;7.63;;;5.93;;
16522;SDS011;19889;52.546;13.348;2024-02-14T08:26:55;7.90;;;5.90;;
16522;SDS011;19889;52.546;13.348;2024-02-14T08:29:22;10.10;;;5.53;;
16522;SDS011;19889;52.546;13.348;2024-02-14T08:31:50;4.90;;;3.87;;
16522;SDS011;19889;52.546;13.348;2024-02-14T08:34:18;4.37;;;3.77;;
16522;SDS011;19889;52.546;13.348;2024-02-14T08:36:45;4.30;;;3.60;;
16522;SDS011;19889;52.546;13.348;2024-02-14T08:39:13;3.60;;;3.30;;
16522;SDS011;19889;52.546;13.348;2024-02-14T08:41:40;5.97;;;3.23;;
16522;SDS011;19889;52.546;13.348;2024-02-14T08:44:13;4.83;;;3.40;;
16522;SDS011;19889;52.546;13.348;2024-02-14T08:46:41;4.10;;;3.03;;
16522;SDS011;19889;52.546;13.348;2024-02-14T08:49:10;4.70;;;2.87;;
16522;SDS011;19889;52.546;13.348;2024-02-14T08:51:37;6.27;;;3.43;;
16522;SDS011;19889;52.546;13.348;2024-02-14T08:54:05;3.80;;;3.40;;
16522;SDS011;19889;52.546;13.348;2024-02-14T08:56:33;4.20;;;3.20;;
16522;SDS011;19889;52.546;13.348;2024-02-14T08:59:00;4.13;;;2.80;;
16522;SDS011;19889;52.546;13.348;2024-02-14T09:01:30;6.80;;;4.60;;
16522;SDS011;19889;52.546;13.348;2024-02-14T09:03:57;4.27;;;3.60;;
16522;SDS011;19889;52.546;13.348;2024-02-14T09:06:28;6.23;;;3.60;;
16522;SDS011;19889;52.546;13.348;2024-02-14T09:09:04;4.10;;;3.17;;
16522;SDS011;19889;52.546;13.348;2024-02-14T09:11:32;4.20;;;2.53;;
16522;SDS011;19889;52.546;13.348;2024-02-14T09:13:59;3.80;;;3.13;;
16522;SDS011;19889;52.546;13.348;2024-02-14T09:16:33;3.20;;;2.90;;
16522;SDS011;19889;52.546;13.348;2024-02-14T09:19:01;2.53;;;2.33;;
16522;SDS011;19889;52.546;13.348;2024-02-14T09:21:28;3.07;;;2.77;;
16522;SDS011;19889;52.546;13.348;2024-02-14T09:24:10;3.17;;;2.50;;
16522;SDS011;19889;52.546;13.348;2024-02-14T09:26:38;3.07;;;2.33;;
16522;SDS011;19889;52.546;13.348;2024-02-14T09:29:06;3.17;;;2.20;;
16522;SDS011;19889;52.546;13.348;2024-02-14T09:31:34;2.43;;;2.23;;
16522;SDS011;19889;52.546;13.348;2024-02-14T09:34:02;2.63;;;2.07;;
16522;SDS011;19889;52.546;13.348;2024-02-14T09:36:29;3.80;;;2.20;;
16522;SDS011;19889;52.546;13.348;2024-02-14T09:38:57;2.63;;;2.00;;
16522;SDS011;19889;52.546;13.348;2024-02-14T09:41:25;2.13;;;1.93;;
16522;SDS011;19889;52.546;13.348;2024-02-14T09:43:56;2.57;;;2.00;;
16522;SDS011;19889;52.546;13.348;2024-02-14T09:46:24;2.40;;;2.10;;
16522;SDS011;19889;52.546;13.348;2024-02-14T09:48:53;2.27;;;2.03;;
16522;SDS011;19889;52.546;13.348;2024-02-14T09:51:21;3.63;;;2.00;;
16522;SDS011;19889;52.546;13.348;2024-02-14T09:53:53;2.93;;;1.87;;
16522;SDS011;19889;52.546;13.348;2024-02-14T09:56:21;5.60;;;2.43;;
16522;SDS011;19889;52.546;13.348;2024-02-14T09:58:49;3.97;;;2.10;;
16522;SDS011;19889;52.546;13.348;2024-02-14T10:01:21;2.53;;;2.10;;
16522;SDS011;19889;52.546;13.348;2024-02-14T10:03:49;3.03;;;1.90;;
16522;SDS011;19889;52.546;13.348;2024-02-14T10:06:19;2.43;;;1.80;;
16522;SDS011;19889;52.546;13.348;2024-02-14T10:08:47;2.03;;;1.73;;
16522;SDS011;19889;52.546;13.348;2024-02-14T10:11:16;4.20;;;1.90;;
16522;SDS011;19889;52.546;13.348;2024-02-14T10:13:46;3.27;;;1.90;;
16522;SDS011;19889;52.546;13.348;2024-02-14T10:16:15;3.10;;;2.07;;
16522;SDS011;19889;52.546;13.348;2024-02-14T10:18:44;4.60;;;2.10;;
16522;SDS011;19889;52.546;13.348;2024-02-14T10:21:14;3.37;;;2.20;;
16522;SDS011;19889;52.546;13.348;2024-02-14T10:23:46;2.63;;;2.00;;
16522;SDS011;19889;52.546;13.348;2024-02-14T10:26:15;3.60;;;1.83;;
16522;SDS011;19889;52.546;13.348;2024-02-14T10:28:43;1.70;;;1.60;;
16522;SDS011;19889;52.546;13.348;2024-02-14T10:31:11;1.80;;;1.70;;
16522;SDS011;19889;52.546;13.348;2024-02-14T10:33:38;3.33;;;2.10;;
16522;SDS011;19889;52.546;13.348;2024-02-14T10:36:06;4.60;;;1.80;;
16522;SDS011;19889;52.546;13.348;2024-02-14T10:38:35;3.10;;;1.73;;
16522;SDS011;19889;52.546;13.348;2024-02-14T10:41:04;4.30;;;3.77;;
16522;SDS011;19889;52.546;13.348;2024-02-14T10:43:32;4.30;;;2.60;;
16522;SDS011;19889;52.546;13.348;2024-02-14T10:46:03;4.20;;;2.30;;
16522;SDS011;19889;52.546;13.348;2024-02-14T10:48:37;3.83;;;2.37;;
16522;SDS011;19889;52.546;13.348;2024-02-14T10:51:05;4.10;;;2.17;;
16522;SDS011;19889;52.546;13.348;2024-02-14T10:53:36;2.87;;;2.00;;
16522;SDS011;19889;52.546;13.348;2024-02-14T10:56:12;2.30;;;2.10;;
16522;SDS011;19889;52.546;13.348;2024-02-14T10:58:43;2.47;;;2.00;;
16522;SDS011;19889;52.546;13.348;2024-02-14T11:01:14;3.00;;;2.20;;
16522;SDS011;19889;52.546;13.348;2024-02-14T11:03:42;4.57;;;2.40;;
16522;SDS011;19889;52.546;13.348;2024-02-14T11:06:15;3.33;;;2.23;;
16522;SDS011;19889;52.546;13.348;2024-02-14T11:08:54;3.33;;;2.13;;
16522;SDS011;19889;52.546;13.348;2024-02-14T11:11:27;2.37;;;2.17;;
16522;SDS011;19889;52.546;13.348;2024-02-14T11:13:56;3.40;;;2.07;;
16522;SDS011;19889;52.546;13.348;2024-02-14T11:16:25;3.97;;;2.40;;
16522;SDS011;19889;52.546;13.348;2024-02-14T11:18:53;2.83;;;2.13;;
16522;SDS011;19889;52.546;13.348;2024-02-14T11:21:27;3.40;;;2.60;;
16522;SDS011;19889;52.546;13.348;2024-02-14T11:23:56;3.50;;;2.07;;
16522;SDS011;19889;52.546;13.348;2024-02-14T11:26:37;3.73;;;2.30;;
16522;SDS011;19889;52.546;13.348;2024-02-14T11:29:04;4.07;;;2.23;;
16522;SDS011;19889;52.546;13.348;2024-02-14T11:31:33;2.27;;;2.07;;
16522;SDS011;19889;52.546;13.348;2024-02-14T11:34:04;2.33;;;2.13;;
16522;SDS011;19889;52.546;13.348;2024-02-14T11:36:34;4.13;;;2.83;;
16522;SDS011;19889;52.546;13.348;2024-02-14T11:39:03;4.90;;;2.40;;
16522;SDS011;19889;52.546;13.348;2024-02-14T11:41:33;2.20;;;2.00;;
16522;SDS011;19889;52.546;13.348;2024-02-14T11:44:03;2.43;;;2.23;;
16522;SDS011;19889;52.546;13.348;2024-02-14T11:46:33;4.20;;;2.30;;
16522;SDS011;19889;52.546;13.348;2024-02-14T11:49:02;3.33;;;2.10;;
16522;SDS011;19889;52.546;13.348;2024-02-14T11:51:30;3.53;;;2.37;;
16522;SDS011;19889;52.546;13.348;2024-02-14T11:53:59;2.77;;;2.10;;
16522;SDS011;19889;52.546;13.348;2024-02-14T11:56:30;3.33;;;2.20;;
16522;SDS011;19889;52.546;13.348;2024-02-14T11:59:04;3.90;;;2.50;;
16522;SDS011;19889;52.546;13.348;2024-02-14T12:01:51;2.63;;;2.30;;
16522;SDS011;19889;52.546;13.348;2024-02-14T12:04:20;3.43;;;2.70;;
16522;SDS011;19889;52.546;13.348;2024-02-14T12:06:48;3.40;;;2.73;;
16522;SDS011;19889;52.546;13.348;2024-02-14T12:09:16;3.80;;;2.50;;
16522;SDS011;19889;52.546;13.348;2024-02-14T12:11:44;3.63;;;2.43;;
16522;SDS011;19889;52.546;13.348;2024-02-14T12:14:13;3.77;;;2.40;;
16522;SDS011;19889;52.546;13.348;2024-02-14T12:16:44;4.30;;;2.47;;
16522;SDS011;19889;52.546;13.348;2024-02-14T12:19:13;2.97;;;2.50;;
16522;SDS011;19889;52.546;13.348;2024-02-14T12:21:42;3.60;;;2.40;;
16522;SDS011;19889;52.546;13.348;2024-02-14T12:24:10;2.87;;;2.17;;
16522;SDS011;19889;52.546;13.348;2024-02-14T12:26:40;3.60;;;2.33;;
16522;SDS011;19889;52.546;13.348;2024-02-14T12:29:11;4.07;;;2.60;;
16522;SDS011;19889;52.546;13.348;2024-02-14T12:31:41;4.83;;;2.20;;
16522;SDS011;19889;52.546;13.348;2024-02-14T12:34:10;2.10;;;1.90;;
16522;SDS011;19889;52.546;13.348;2024-02-14T12:36:38;3.67;;;2.00;;
16522;SDS011;19889;52.546;13.348;2024-02-14T12:39:05;4.27;;;2.60;;
16522;SDS011;19889;52.546;13.348;2024-02-14T12:41:35;3.87;;;2.50;;
16522;SDS011;19889;52.546;13.348;2024-02-14T12:44:05;2.90;;;2.10;;
16522;SDS011;19889;52.546;13.348;2024-02-14T12:46:33;2.80;;;2.50;;
16522;SDS011;19889;52.546;13.348;2024-02-14T12:49:04;4.03;;;2.80;;
16522;SDS011;19889;52.546;13.348;2024-02-14T12:51:34;2.50;;;2.30;;
16522;SDS011;19889;52.546;13.348;2024-02-14T12:54:03;4.60;;;2.70;;
16522;SDS011;19889;52.546;13.348;2024-02-14T12:56:32;2.17;;;1.97;;
16522;SDS011;19889;52.546;13.348;2024-02-14T12:59:00;4.00;;;2.37;;
16522;SDS011;19889;52.546;13.348;2024-02-14T13:01:28;3.70;;;2.50;;
16522;SDS011;19889;52.546;13.348;2024-02-14T13:03:56;4.87;;;2.90;;
16522;SDS011;19889;52.546;13.348;2024-02-14T13:06:26;3.13;;;2.40;;
16522;SDS011;19889;52.546;13.348;2024-02-14T13:08:54;4.13;;;2.93;;
16522;SDS011;19889;52.546;13.348;2024-02-14T13:11:22;5.47;;;2.77;;
16522;SDS011;19889;52.546;13.348;2024-02-14T13:13:50;3.80;;;2.50;;
16522;SDS011;19889;52.546;13.348;2024-02-14T13:16:18;3.93;;;2.77;;
16522;SDS011;19889;52.546;13.348;2024-02-14T13:18:45;2.40;;;2.20;;
16522;SDS011;19889;52.546;13.348;2024-02-14T13:21:13;3.97;;;2.17;;
16522;SDS011;19889;52.546;13.348;2024-02-14T13:23:43;4.07;;;2.50;;
16522;SDS011;19889;52.546;13.348;2024-02-14T13:26:10;3.13;;;2.57;;
16522;SDS011;19889;52.546;13.348;2024-02-14T13:28:54;2.93;;;2.67;;
16522;SDS011;19889;52.546;13.348;2024-02-14T13:31:21;3.03;;;2.73;;
16522;SDS011;19889;52.546;13.348;2024-02-14T13:34:04;3.53;;;2.50;;
16522;SDS011;19889;52.546;13.348;2024-02-14T13:36:33;3.57;;;2.60;;
16522;SDS011;19889;52.546;13.348;2024-02-14T13:39:02;4.80;;;2.73;;
16522;SDS011;19889;52.546;13.348;2024-02-14T13:41:30;2.67;;;2.30;;
16522;SDS011;19889;52.546;13.348;2024-02-14T13:43:57;5.63;;;2.90;;
16522;SDS011;19889;52.546;13.348;2024-02-14T13:46:25;2.93;;;2.67;;
16522;SDS011;19889;52.546;13.348;2024-02-14T13:48:52;2.93;;;2.60;;
16522;SDS011;19889;52.546;13.348;2024-02-14T13:51:20;3.73;;;2.43;;
16522;SDS011;19889;52.546;13.348;2024-02-14T13:53:47;2.43;;;2.23;;
16522;SDS011;19889;52.546;13.348;2024-02-14T13:56:17;3.10;;;2.37;;
16522;SDS011;19889;52.546;13.348;2024-02-14T13:58:47;3.20;;;2.63;;
16522;SDS011;19889;52.546;13.348;2024-02-14T14:01:15;4.83;;;2.77;;
16522;SDS011;19889;52.546;13.348;2024-02-14T14:03:44;2.90;;;2.60;;
16522;SDS011;19889;52.546;13.348;2024-02-14T14:06:13;3.37;;;2.43;;
16522;SDS011;19889;52.546;13.348;2024-02-14T14:08:40;4.67;;;2.07;;
16522;SDS011;19889;52.546;13.348;2024-02-14T14:11:08;3.50;;;2.53;;
16522;SDS011;19889;52.546;13.348;2024-02-14T14:13:37;1.80;;;1.70;;
16522;SDS011;19889;52.546;13.348;2024-02-14T14:16:05;2.20;;;2.00;;
16522;SDS011;19889;52.546;13.348;2024-02-14T14:18:32;3.30;;;2.30;;
16522;SDS011;19889;52.546;13.348;2024-02-14T14:21:02;3.33;;;2.50;;
16522;SDS011;19889;52.546;13.348;2024-02-14T14:23:30;2.07;;;1.87;;
16522;SDS011;19889;52.546;13.348;2024-02-14T14:25:57;2.83;;;2.20;;
16522;SDS011;19889;52.546;13.348;2024-02-14T14:28:25;4.87;;;2.63;;
16522;SDS011;19889;52.546;13.348;2024-02-14T14:30:55;4.20;;;2.87;;
16522;SDS011;19889;52.546;13.348;2024-02-14T14:33:22;4.07;;;2.50;;
16522;SDS011;19889;52.546;13.348;2024-02-14T14:35:50;2.73;;;2.30;;
16522;SDS011;19889;52.546;13.348;2024-02-14T14:38:19;3.43;;;2.53;;
16522;SDS011;19889;52.546;13.348;2024-02-14T14:40:46;3.90;;;2.80;;